Airfield :
LOGIN :

Register | Disclaimer

   EN    FR    IT 

 










Legend :    VFR   Marginal VFR   IFR   Intensive IFR   Very Intensive IFR
Visi :
Ceiling :
>= 8 km
>= 3000ft
5 to 8 km
1000 to 3000 ft
1500m to 5 km
500 to 1000 ft
800 to 1500m
200 to 500 ft
< 800m
< 200 ft
Symbols :   Thunderstorms  Fog  Heavy snow  Heavy precipitations  Wind > 20 kt
SIGMETs :     Misc.  Thunderstorms  Icing  Turbulence  Mountain Waves  Volcanic Ashes







- Airport Elevation : 74 ft
- IATA code : EIN


EHEH - Eindhoven

CURRENT METAR :
  • 262225Z AUTO VRB02KT 9999 OVC050 07/04 Q1032 BLU

EXPIRED METARs :
  • 262155Z AUTO 31003KT 270V350 9999 OVC051 07/04 Q1032 BLU 30004KT 9999 BKN045
  • 262125Z AUTO 31003KT 280V350 9999 OVC050 07/04 Q1032 BLU 30004KT 9999 BKN045
  • 262055Z AUTO 29003KT 240V340 9999 OVC052 07/04 Q1032 BLU 30004KT 9999 BKN045
  • 262025Z AUTO 26003KT 240V300 9999 OVC050 07/03 Q1032 BLU 30004KT 9999 BKN045
  • 261955Z AUTO 28004KT 240V330 9999 FEW046 OVC051 08/03 Q1032 BLU 30004KT 9999 BKN045

TAF TAF EHEH
Valid from the 26 at 18:00 until the 28 at 00:00 UTC


261750Z 2618/2724 31008KT 9999 SCT048
BECMG 2621/2623 VRB03KT 4500 BR MIFG SCT010
PROB40 2700/2707 0800 FG SCT001
BECMG 2707/2709 6000 BKN007
BECMG 2709/2711 9999 SCT020
No reported NOTAMs for that airfield.



MET'MAP, your aeronautical weather chart ! - Copyright ORBIFLY December 2007 - Disclaimer

ORBIFLY MET'MAP TEAM :

Programming & Development : Alexandra Zaïnal
Concept & Development : Baudouin d'Aumeries
Co-Development & Prog : Marc-Olivier Méhu
Technical & hardware support : Manuel Goepfert

Contact : metmap@orbifly.com




SOURCES & CREDITS :

   NOAA